sensor_id;sensor_type;location;lat;lon;timestamp;pressure;altitude;pressure_sealevel;temperature;humidity
57412;BME280;43247;52.828;-8.980;2023-05-20T00:00:07;103130.38;;;14.54;80.93
57412;BME280;43247;52.828;-8.980;2023-05-20T00:01:06;103131.93;;;14.53;80.92
57412;BME280;43247;52.828;-8.980;2023-05-20T00:02:06;103128.91;;;14.53;80.94
57412;BME280;43247;52.828;-8.980;2023-05-20T00:03:07;103128.31;;;14.53;80.94
57412;BME280;43247;52.828;-8.980;2023-05-20T00:04:07;103125.57;;;14.53;80.92
57412;BME280;43247;52.828;-8.980;2023-05-20T00:05:07;103123.84;;;14.52;80.93
57412;BME280;43247;52.828;-8.980;2023-05-20T00:06:07;103124.65;;;14.52;80.97
57412;BME280;43247;52.828;-8.980;2023-05-20T00:07:07;103121.58;;;14.52;81.00
57412;BME280;43247;52.828;-8.980;2023-05-20T00:08:08;103122.42;;;14.52;81.00
57412;BME280;43247;52.828;-8.980;2023-05-20T00:09:08;103121.72;;;14.51;81.00
57412;BME280;43247;52.828;-8.980;2023-05-20T00:10:09;103120.13;;;14.51;81.02
57412;BME280;43247;52.828;-8.980;2023-05-20T00:11:09;103117.37;;;14.51;80.99
57412;BME280;43247;52.828;-8.980;2023-05-20T00:12:09;103117.84;;;14.51;81.00
57412;BME280;43247;52.828;-8.980;2023-05-20T00:13:10;103116.17;;;14.51;81.03
57412;BME280;43247;52.828;-8.980;2023-05-20T00:14:09;103116.13;;;14.50;81.05
57412;BME280;43247;52.828;-8.980;2023-05-20T00:15:10;103117.35;;;14.50;81.05
57412;BME280;43247;52.828;-8.980;2023-05-20T00:16:09;103115.88;;;14.49;81.03
57412;BME280;43247;52.828;-8.980;2023-05-20T00:17:10;103115.50;;;14.49;81.07
57412;BME280;43247;52.828;-8.980;2023-05-20T00:18:10;103114.77;;;14.49;81.08
57412;BME280;43247;52.828;-8.980;2023-05-20T00:19:10;103116.80;;;14.49;81.13
57412;BME280;43247;52.828;-8.980;2023-05-20T00:20:11;103117.47;;;14.49;81.13
57412;BME280;43247;52.828;-8.980;2023-05-20T00:21:11;103116.25;;;14.48;81.16
57412;BME280;43247;52.828;-8.980;2023-05-20T00:22:11;103115.47;;;14.48;81.15
57412;BME280;43247;52.828;-8.980;2023-05-20T00:23:11;103115.00;;;14.48;81.18
57412;BME280;43247;52.828;-8.980;2023-05-20T00:24:11;103113.66;;;14.47;81.18
57412;BME280;43247;52.828;-8.980;2023-05-20T00:25:12;103112.42;;;14.47;81.16
57412;BME280;43247;52.828;-8.980;2023-05-20T00:26:12;103111.23;;;14.47;81.20
57412;BME280;43247;52.828;-8.980;2023-05-20T00:27:12;103109.24;;;14.47;81.19
57412;BME280;43247;52.828;-8.980;2023-05-20T00:28:12;103109.14;;;14.47;81.18
57412;BME280;43247;52.828;-8.980;2023-05-20T00:29:13;103110.15;;;14.46;81.22
57412;BME280;43247;52.828;-8.980;2023-05-20T00:30:14;103109.82;;;14.46;81.21
57412;BME280;43247;52.828;-8.980;2023-05-20T00:31:14;103109.72;;;14.45;81.22
57412;BME280;43247;52.828;-8.980;2023-05-20T00:32:14;103107.51;;;14.45;81.19
57412;BME280;43247;52.828;-8.980;2023-05-20T00:33:14;103106.82;;;14.45;81.21
57412;BME280;43247;52.828;-8.980;2023-05-20T00:34:14;103105.61;;;14.45;81.21
57412;BME280;43247;52.828;-8.980;2023-05-20T00:35:14;103102.92;;;14.44;81.21
57412;BME280;43247;52.828;-8.980;2023-05-20T00:36:15;103101.47;;;14.44;81.20
57412;BME280;43247;52.828;-8.980;2023-05-20T00:37:15;103100.66;;;14.43;81.25
57412;BME280;43247;52.828;-8.980;2023-05-20T00:38:15;103100.16;;;14.43;81.28
57412;BME280;43247;52.828;-8.980;2023-05-20T00:39:15;103103.45;;;14.43;81.21
57412;BME280;43247;52.828;-8.980;2023-05-20T00:40:16;103101.20;;;14.42;81.27
57412;BME280;43247;52.828;-8.980;2023-05-20T00:41:16;103101.99;;;14.42;81.28
57412;BME280;43247;52.828;-8.980;2023-05-20T00:42:19;103104.33;;;14.42;81.27
57412;BME280;43247;52.828;-8.980;2023-05-20T00:43:16;103101.61;;;14.42;81.28
57412;BME280;43247;52.828;-8.980;2023-05-20T00:44:16;103100.19;;;14.41;81.34
57412;BME280;43247;52.828;-8.980;2023-05-20T00:45:17;103098.21;;;14.41;81.30
57412;BME280;43247;52.828;-8.980;2023-05-20T00:46:17;103098.17;;;14.41;81.34
57412;BME280;43247;52.828;-8.980;2023-05-20T00:47:18;103097.33;;;14.40;81.37
57412;BME280;43247;52.828;-8.980;2023-05-20T00:48:17;103096.89;;;14.40;81.36
57412;BME280;43247;52.828;-8.980;2023-05-20T00:49:17;103097.08;;;14.40;81.40
57412;BME280;43247;52.828;-8.980;2023-05-20T00:50:18;103095.18;;;14.39;81.42
57412;BME280;43247;52.828;-8.980;2023-05-20T00:51:18;103094.77;;;14.39;81.49
57412;BME280;43247;52.828;-8.980;2023-05-20T00:52:18;103092.98;;;14.39;81.50
57412;BME280;43247;52.828;-8.980;2023-05-20T00:53:19;103094.57;;;14.38;81.46
57412;BME280;43247;52.828;-8.980;2023-05-20T00:54:18;103094.47;;;14.38;81.45
57412;BME280;43247;52.828;-8.980;2023-05-20T00:55:18;103095.64;;;14.38;81.44
57412;BME280;43247;52.828;-8.980;2023-05-20T00:56:20;103092.71;;;14.38;81.47
57412;BME280;43247;52.828;-8.980;2023-05-20T00:57:19;103090.13;;;14.38;81.42
57412;BME280;43247;52.828;-8.980;2023-05-20T00:58:19;103089.11;;;14.38;81.46
57412;BME280;43247;52.828;-8.980;2023-05-20T00:59:19;103086.34;;;14.37;81.46
57412;BME280;43247;52.828;-8.980;2023-05-20T01:00:20;103085.65;;;14.37;81.45
57412;BME280;43247;52.828;-8.980;2023-05-20T01:01:20;103084.96;;;14.37;81.48
57412;BME280;43247;52.828;-8.980;2023-05-20T01:02:20;103080.18;;;14.36;81.45
57412;BME280;43247;52.828;-8.980;2023-05-20T01:03:21;103079.11;;;14.36;81.45
57412;BME280;43247;52.828;-8.980;2023-05-20T01:04:21;103077.54;;;14.35;81.38
57412;BME280;43247;52.828;-8.980;2023-05-20T01:05:21;103076.96;;;14.34;81.42
57412;BME280;43247;52.828;-8.980;2023-05-20T01:06:21;103075.84;;;14.33;81.55
57412;BME280;43247;52.828;-8.980;2023-05-20T01:07:21;103075.48;;;14.32;81.59
57412;BME280;43247;52.828;-8.980;2023-05-20T01:08:24;103077.86;;;14.32;81.62
57412;BME280;43247;52.828;-8.980;2023-05-20T01:09:23;103078.94;;;14.32;81.68
57412;BME280;43247;52.828;-8.980;2023-05-20T01:10:25;103079.39;;;14.32;81.67
57412;BME280;43247;52.828;-8.980;2023-05-20T01:11:27;103080.54;;;14.32;81.61
57412;BME280;43247;52.828;-8.980;2023-05-20T01:12:26;103079.81;;;14.32;81.59
57412;BME280;43247;52.828;-8.980;2023-05-20T01:13:28;103083.49;;;14.32;81.64
57412;BME280;43247;52.828;-8.980;2023-05-20T01:14:26;103083.58;;;14.31;81.60
57412;BME280;43247;52.828;-8.980;2023-05-20T01:15:26;103085.94;;;14.31;81.61
57412;BME280;43247;52.828;-8.980;2023-05-20T01:16:24;103088.13;;;14.31;81.63
57412;BME280;43247;52.828;-8.980;2023-05-20T01:17:26;103089.30;;;14.31;81.59
57412;BME280;43247;52.828;-8.980;2023-05-20T01:18:26;103086.89;;;14.31;81.70
57412;BME280;43247;52.828;-8.980;2023-05-20T01:19:30;103084.09;;;14.31;81.72
57412;BME280;43247;52.828;-8.980;2023-05-20T01:20:27;103084.88;;;14.31;81.69
57412;BME280;43247;52.828;-8.980;2023-05-20T01:21:26;103083.24;;;14.31;81.76
57412;BME280;43247;52.828;-8.980;2023-05-20T01:22:26;103081.30;;;14.31;81.71
57412;BME280;43247;52.828;-8.980;2023-05-20T01:23:31;103079.73;;;14.30;81.72
57412;BME280;43247;52.828;-8.980;2023-05-20T01:24:26;103078.58;;;14.30;81.65
57412;BME280;43247;52.828;-8.980;2023-05-20T01:25:26;103076.10;;;14.30;81.68
57412;BME280;43247;52.828;-8.980;2023-05-20T01:26:26;103076.58;;;14.30;81.69
57412;BME280;43247;52.828;-8.980;2023-05-20T01:27:26;103075.27;;;14.30;81.71
57412;BME280;43247;52.828;-8.980;2023-05-20T01:28:27;103074.03;;;14.29;81.69
57412;BME280;43247;52.828;-8.980;2023-05-20T01:29:28;103072.81;;;14.30;81.64
57412;BME280;43247;52.828;-8.980;2023-05-20T01:30:32;103072.44;;;14.29;81.66
57412;BME280;43247;52.828;-8.980;2023-05-20T01:31:31;103070.98;;;14.29;81.65
57412;BME280;43247;52.828;-8.980;2023-05-20T01:32:31;103067.45;;;14.29;81.66
57412;BME280;43247;52.828;-8.980;2023-05-20T01:33:29;103063.21;;;14.29;81.72
57412;BME280;43247;52.828;-8.980;2023-05-20T01:34:29;103062.13;;;14.29;81.72
57412;BME280;43247;52.828;-8.980;2023-05-20T01:35:29;103060.10;;;14.28;81.70
57412;BME280;43247;52.828;-8.980;2023-05-20T01:36:30;103058.34;;;14.29;81.69
57412;BME280;43247;52.828;-8.980;2023-05-20T01:37:29;103056.67;;;14.28;81.69
57412;BME280;43247;52.828;-8.980;2023-05-20T01:38:29;103055.64;;;14.28;81.71
57412;BME280;43247;52.828;-8.980;2023-05-20T01:39:30;103051.24;;;14.28;81.77
57412;BME280;43247;52.828;-8.980;2023-05-20T01:40:30;103050.95;;;14.28;81.73
57412;BME280;43247;52.828;-8.980;2023-05-20T01:41:29;103048.59;;;14.28;81.70
57412;BME280;43247;52.828;-8.980;2023-05-20T01:42:30;103046.85;;;14.27;81.62
57412;BME280;43247;52.828;-8.980;2023-05-20T01:43:30;103047.73;;;14.27;81.69
57412;BME280;43247;52.828;-8.980;2023-05-20T01:44:31;103044.52;;;14.26;81.79
57412;BME280;43247;52.828;-8.980;2023-05-20T01:45:31;103043.34;;;14.25;81.77
57412;BME280;43247;52.828;-8.980;2023-05-20T01:46:32;103041.39;;;14.25;81.75
57412;BME280;43247;52.828;-8.980;2023-05-20T01:47:31;103040.88;;;14.25;81.80
57412;BME280;43247;52.828;-8.980;2023-05-20T01:48:32;103037.72;;;14.25;81.73
57412;BME280;43247;52.828;-8.980;2023-05-20T01:49:32;103034.94;;;14.24;81.63
57412;BME280;43247;52.828;-8.980;2023-05-20T01:50:32;103033.59;;;14.24;81.62
57412;BME280;43247;52.828;-8.980;2023-05-20T01:51:32;103034.22;;;14.25;81.61
57412;BME280;43247;52.828;-8.980;2023-05-20T01:52:32;103034.05;;;14.25;81.63
57412;BME280;43247;52.828;-8.980;2023-05-20T01:53:32;103036.60;;;14.26;81.51
57412;BME280;43247;52.828;-8.980;2023-05-20T01:54:33;103036.29;;;14.26;81.50
57412;BME280;43247;52.828;-8.980;2023-05-20T01:55:33;103035.08;;;14.26;81.51
57412;BME280;43247;52.828;-8.980;2023-05-20T01:56:33;103034.64;;;14.24;81.41
57412;BME280;43247;52.828;-8.980;2023-05-20T01:57:34;103033.22;;;14.19;81.32
57412;BME280;43247;52.828;-8.980;2023-05-20T01:58:34;103032.24;;;14.07;81.22
57412;BME280;43247;52.828;-8.980;2023-05-20T01:59:34;103031.96;;;14.00;81.50
57412;BME280;43247;52.828;-8.980;2023-05-20T02:00:35;103030.60;;;13.97;81.50
57412;BME280;43247;52.828;-8.980;2023-05-20T02:01:35;103031.86;;;14.01;81.28
57412;BME280;43247;52.828;-8.980;2023-05-20T02:02:35;103030.45;;;14.03;81.25
57412;BME280;43247;52.828;-8.980;2023-05-20T02:03:36;103030.02;;;14.03;81.09
57412;BME280;43247;52.828;-8.980;2023-05-20T02:04:36;103028.96;;;14.02;81.15
57412;BME280;43247;52.828;-8.980;2023-05-20T02:05:36;103027.82;;;14.01;81.21
57412;BME280;43247;52.828;-8.980;2023-05-20T02:06:36;103028.41;;;14.00;81.16
57412;BME280;43247;52.828;-8.980;2023-05-20T02:07:37;103028.14;;;13.97;81.25
57412;BME280;43247;52.828;-8.980;2023-05-20T02:08:37;103027.29;;;14.00;81.24
57412;BME280;43247;52.828;-8.980;2023-05-20T02:09:37;103025.83;;;14.09;80.96
57412;BME280;43247;52.828;-8.980;2023-05-20T02:10:37;103025.81;;;14.14;80.90
57412;BME280;43247;52.828;-8.980;2023-05-20T02:11:37;103024.87;;;14.17;80.95
57412;BME280;43247;52.828;-8.980;2023-05-20T02:12:38;103022.72;;;14.19;81.03
57412;BME280;43247;52.828;-8.980;2023-05-20T02:13:38;103021.34;;;14.21;80.92
57412;BME280;43247;52.828;-8.980;2023-05-20T02:14:38;103021.61;;;14.21;80.81
57412;BME280;43247;52.828;-8.980;2023-05-20T02:15:40;103019.99;;;14.22;80.84
57412;BME280;43247;52.828;-8.980;2023-05-20T02:16:39;103023.42;;;14.22;81.00
57412;BME280;43247;52.828;-8.980;2023-05-20T02:17:39;103023.82;;;14.22;81.11
57412;BME280;43247;52.828;-8.980;2023-05-20T02:18:39;103025.63;;;14.22;81.14
57412;BME280;43247;52.828;-8.980;2023-05-20T02:19:39;103026.78;;;14.22;81.20
57412;BME280;43247;52.828;-8.980;2023-05-20T02:20:40;103027.36;;;14.22;81.29
57412;BME280;43247;52.828;-8.980;2023-05-20T02:21:41;103028.62;;;14.22;81.28
57412;BME280;43247;52.828;-8.980;2023-05-20T02:22:41;103029.39;;;14.22;81.30
57412;BME280;43247;52.828;-8.980;2023-05-20T02:23:41;103030.89;;;14.23;81.28
57412;BME280;43247;52.828;-8.980;2023-05-20T02:24:41;103030.86;;;14.22;81.32
57412;BME280;43247;52.828;-8.980;2023-05-20T02:25:42;103031.05;;;14.23;81.36
57412;BME280;43247;52.828;-8.980;2023-05-20T02:26:44;103033.68;;;14.23;81.30
57412;BME280;43247;52.828;-8.980;2023-05-20T02:27:42;103032.21;;;14.23;81.27
57412;BME280;43247;52.828;-8.980;2023-05-20T02:28:43;103031.93;;;14.24;81.24
57412;BME280;43247;52.828;-8.980;2023-05-20T02:29:43;103031.61;;;14.23;81.14
57412;BME280;43247;52.828;-8.980;2023-05-20T02:30:44;103030.30;;;14.23;81.21
57412;BME280;43247;52.828;-8.980;2023-05-20T02:31:45;103029.38;;;14.24;81.09
57412;BME280;43247;52.828;-8.980;2023-05-20T02:32:45;103027.09;;;14.24;81.06
57412;BME280;43247;52.828;-8.980;2023-05-20T02:33:45;103025.78;;;14.24;80.92
57412;BME280;43247;52.828;-8.980;2023-05-20T02:34:45;103025.02;;;14.24;81.00
57412;BME280;43247;52.828;-8.980;2023-05-20T02:35:46;103024.76;;;14.24;80.98
57412;BME280;43247;52.828;-8.980;2023-05-20T02:36:46;103021.70;;;14.24;80.96
57412;BME280;43247;52.828;-8.980;2023-05-20T02:37:46;103022.06;;;14.24;80.92
57412;BME280;43247;52.828;-8.980;2023-05-20T02:38:47;103022.44;;;14.24;80.88
57412;BME280;43247;52.828;-8.980;2023-05-20T02:39:47;103021.04;;;14.24;81.03
57412;BME280;43247;52.828;-8.980;2023-05-20T02:40:47;103022.75;;;14.24;80.97
57412;BME280;43247;52.828;-8.980;2023-05-20T02:41:48;103020.03;;;14.23;80.98
57412;BME280;43247;52.828;-8.980;2023-05-20T02:42:48;103016.24;;;14.23;81.04
57412;BME280;43247;52.828;-8.980;2023-05-20T02:43:48;103013.93;;;14.23;81.10
57412;BME280;43247;52.828;-8.980;2023-05-20T02:44:48;103014.14;;;14.23;81.15
57412;BME280;43247;52.828;-8.980;2023-05-20T02:45:48;103010.64;;;14.23;81.14
57412;BME280;43247;52.828;-8.980;2023-05-20T02:46:48;103009.78;;;14.23;81.17
57412;BME280;43247;52.828;-8.980;2023-05-20T02:47:49;103006.41;;;14.23;81.23
57412;BME280;43247;52.828;-8.980;2023-05-20T02:48:49;103004.91;;;14.23;81.30
57412;BME280;43247;52.828;-8.980;2023-05-20T02:49:50;103003.88;;;14.23;81.30
57412;BME280;43247;52.828;-8.980;2023-05-20T02:50:50;103002.23;;;14.22;81.32
57412;BME280;43247;52.828;-8.980;2023-05-20T02:51:50;102999.60;;;14.23;81.26
57412;BME280;43247;52.828;-8.980;2023-05-20T02:52:51;102995.41;;;14.23;81.30
57412;BME280;43247;52.828;-8.980;2023-05-20T02:53:51;102994.05;;;14.23;81.30
57412;BME280;43247;52.828;-8.980;2023-05-20T02:54:52;102993.23;;;14.23;81.32
57412;BME280;43247;52.828;-8.980;2023-05-20T02:55:52;102994.30;;;14.23;81.29
57412;BME280;43247;52.828;-8.980;2023-05-20T02:56:52;102994.88;;;14.23;81.29
57412;BME280;43247;52.828;-8.980;2023-05-20T02:57:53;102995.07;;;14.23;81.29
57412;BME280;43247;52.828;-8.980;2023-05-20T02:58:53;102992.64;;;14.22;81.43
57412;BME280;43247;52.828;-8.980;2023-05-20T02:59:54;102989.38;;;14.21;81.45
57412;BME280;43247;52.828;-8.980;2023-05-20T03:00:54;102987.28;;;14.20;81.27
57412;BME280;43247;52.828;-8.980;2023-05-20T03:01:54;102985.27;;;14.20;81.07
57412;BME280;43247;52.828;-8.980;2023-05-20T03:02:54;102984.48;;;14.19;80.95
57412;BME280;43247;52.828;-8.980;2023-05-20T03:03:55;102983.23;;;14.18;80.98
57412;BME280;43247;52.828;-8.980;2023-05-20T03:04:55;102982.85;;;14.18;81.17
57412;BME280;43247;52.828;-8.980;2023-05-20T03:05:55;102981.17;;;14.17;81.32
57412;BME280;43247;52.828;-8.980;2023-05-20T03:06:56;102979.15;;;14.16;81.46
57412;BME280;43247;52.828;-8.980;2023-05-20T03:07:56;102980.07;;;14.16;81.52
57412;BME280;43247;52.828;-8.980;2023-05-20T03:08:56;102981.17;;;14.16;81.60
57412;BME280;43247;52.828;-8.980;2023-05-20T03:09:56;102981.08;;;14.17;81.64
57412;BME280;43247;52.828;-8.980;2023-05-20T03:10:57;102980.91;;;14.17;81.64
57412;BME280;43247;52.828;-8.980;2023-05-20T03:11:58;102980.50;;;14.17;81.61
57412;BME280;43247;52.828;-8.980;2023-05-20T03:12:58;102980.88;;;14.17;81.57
57412;BME280;43247;52.828;-8.980;2023-05-20T03:13:58;102981.11;;;14.17;81.58
57412;BME280;43247;52.828;-8.980;2023-05-20T03:14:58;102983.07;;;14.17;81.56
57412;BME280;43247;52.828;-8.980;2023-05-20T03:15:59;102978.89;;;14.17;81.50
57412;BME280;43247;52.828;-8.980;2023-05-20T03:16:59;102978.13;;;14.17;81.48
57412;BME280;43247;52.828;-8.980;2023-05-20T03:17:59;102979.73;;;14.17;81.47
57412;BME280;43247;52.828;-8.980;2023-05-20T03:19:00;102981.14;;;14.17;81.46
57412;BME280;43247;52.828;-8.980;2023-05-20T03:20:00;102981.58;;;14.17;81.41
57412;BME280;43247;52.828;-8.980;2023-05-20T03:21:00;102984.62;;;14.17;81.38
57412;BME280;43247;52.828;-8.980;2023-05-20T03:22:00;102985.64;;;14.17;81.35
57412;BME280;43247;52.828;-8.980;2023-05-20T03:23:01;102983.82;;;14.17;81.35
57412;BME280;43247;52.828;-8.980;2023-05-20T03:24:01;102985.35;;;14.17;81.33
57412;BME280;43247;52.828;-8.980;2023-05-20T03:25:02;102986.54;;;14.17;81.29
57412;BME280;43247;52.828;-8.980;2023-05-20T03:26:02;102983.76;;;14.12;81.13
57412;BME280;43247;52.828;-8.980;2023-05-20T03:27:02;102981.89;;;14.03;80.96
57412;BME280;43247;52.828;-8.980;2023-05-20T03:28:02;102982.43;;;14.05;80.93
57412;BME280;43247;52.828;-8.980;2023-05-20T03:29:03;102982.27;;;14.09;80.70
57412;BME280;43247;52.828;-8.980;2023-05-20T03:30:06;102981.35;;;14.08;80.67
57412;BME280;43247;52.828;-8.980;2023-05-20T03:31:05;102980.73;;;14.08;80.66
57412;BME280;43247;52.828;-8.980;2023-05-20T03:32:06;102979.33;;;14.09;80.75
57412;BME280;43247;52.828;-8.980;2023-05-20T03:33:05;102980.01;;;14.12;80.72
57412;BME280;43247;52.828;-8.980;2023-05-20T03:34:06;102981.07;;;14.13;80.80
57412;BME280;43247;52.828;-8.980;2023-05-20T03:35:07;102982.50;;;14.14;80.72
57412;BME280;43247;52.828;-8.980;2023-05-20T03:36:06;102982.20;;;14.15;80.57
57412;BME280;43247;52.828;-8.980;2023-05-20T03:37:07;102982.75;;;14.16;80.41
57412;BME280;43247;52.828;-8.980;2023-05-20T03:38:07;102983.77;;;14.17;80.27
57412;BME280;43247;52.828;-8.980;2023-05-20T03:39:07;102983.46;;;14.17;80.24
57412;BME280;43247;52.828;-8.980;2023-05-20T03:40:09;102982.44;;;14.14;80.45
57412;BME280;43247;52.828;-8.980;2023-05-20T03:41:09;102983.86;;;14.14;80.30
57412;BME280;43247;52.828;-8.980;2023-05-20T03:42:09;102982.70;;;14.15;80.31
57412;BME280;43247;52.828;-8.980;2023-05-20T03:43:09;102983.70;;;14.13;80.35
57412;BME280;43247;52.828;-8.980;2023-05-20T03:44:09;102985.67;;;14.14;80.35
57412;BME280;43247;52.828;-8.980;2023-05-20T03:45:10;102984.72;;;14.14;80.36
57412;BME280;43247;52.828;-8.980;2023-05-20T03:46:09;102987.50;;;14.14;80.46
57412;BME280;43247;52.828;-8.980;2023-05-20T03:47:10;102984.20;;;14.15;80.48
57412;BME280;43247;52.828;-8.980;2023-05-20T03:48:10;102982.40;;;14.15;80.44
57412;BME280;43247;52.828;-8.980;2023-05-20T03:49:11;102982.41;;;14.17;80.43
57412;BME280;43247;52.828;-8.980;2023-05-20T03:50:11;102980.90;;;14.18;80.38
57412;BME280;43247;52.828;-8.980;2023-05-20T03:51:11;102980.45;;;14.19;80.02
57412;BME280;43247;52.828;-8.980;2023-05-20T03:52:12;102979.37;;;14.21;79.89
57412;BME280;43247;52.828;-8.980;2023-05-20T03:53:12;102977.07;;;14.22;79.86
57412;BME280;43247;52.828;-8.980;2023-05-20T03:54:12;102975.55;;;14.24;79.50
57412;BME280;43247;52.828;-8.980;2023-05-20T03:55:13;102977.39;;;14.23;79.61
57412;BME280;43247;52.828;-8.980;2023-05-20T03:56:13;102975.20;;;14.20;79.80
57412;BME280;43247;52.828;-8.980;2023-05-20T03:57:13;102974.91;;;14.11;79.99
57412;BME280;43247;52.828;-8.980;2023-05-20T03:58:14;102973.96;;;14.02;80.44
57412;BME280;43247;52.828;-8.980;2023-05-20T03:59:14;102973.09;;;14.07;80.59
57412;BME280;43247;52.828;-8.980;2023-05-20T04:00:14;102973.29;;;14.12;80.54
57412;BME280;43247;52.828;-8.980;2023-05-20T04:01:15;102972.88;;;14.15;80.29
57412;BME280;43247;52.828;-8.980;2023-05-20T04:02:15;102970.80;;;14.17;80.01
57412;BME280;43247;52.828;-8.980;2023-05-20T04:03:15;102973.86;;;14.19;80.02
57412;BME280;43247;52.828;-8.980;2023-05-20T04:04:15;102969.99;;;14.19;79.90
57412;BME280;43247;52.828;-8.980;2023-05-20T04:05:16;102967.95;;;14.21;79.73
57412;BME280;43247;52.828;-8.980;2023-05-20T04:06:16;102967.94;;;14.21;79.74
57412;BME280;43247;52.828;-8.980;2023-05-20T04:07:16;102966.77;;;14.21;79.85
57412;BME280;43247;52.828;-8.980;2023-05-20T04:08:17;102964.09;;;14.21;80.03
57412;BME280;43247;52.828;-8.980;2023-05-20T04:09:17;102964.25;;;14.22;79.91
57412;BME280;43247;52.828;-8.980;2023-05-20T04:10:18;102961.13;;;14.21;80.06
57412;BME280;43247;52.828;-8.980;2023-05-20T04:11:18;102960.54;;;14.21;80.14
57412;BME280;43247;52.828;-8.980;2023-05-20T04:12:18;102960.29;;;14.22;80.31
57412;BME280;43247;52.828;-8.980;2023-05-20T04:13:18;102957.60;;;14.21;80.39
57412;BME280;43247;52.828;-8.980;2023-05-20T04:14:18;102956.81;;;14.22;80.43
57412;BME280;43247;52.828;-8.980;2023-05-20T04:15:19;102956.03;;;14.21;80.46
57412;BME280;43247;52.828;-8.980;2023-05-20T04:16:19;102955.63;;;14.22;80.51
57412;BME280;43247;52.828;-8.980;2023-05-20T04:17:19;102953.80;;;14.22;80.52
57412;BME280;43247;52.828;-8.980;2023-05-20T04:18:19;102952.94;;;14.21;80.55
57412;BME280;43247;52.828;-8.980;2023-05-20T04:19:20;102955.56;;;14.17;80.54
57412;BME280;43247;52.828;-8.980;2023-05-20T04:20:20;102957.55;;;14.13;80.79
57412;BME280;43247;52.828;-8.980;2023-05-20T04:21:20;102957.23;;;14.09;80.84
57412;BME280;43247;52.828;-8.980;2023-05-20T04:22:20;102956.60;;;14.04;81.06
57412;BME280;43247;52.828;-8.980;2023-05-20T04:23:20;102959.33;;;13.98;81.24
57412;BME280;43247;52.828;-8.980;2023-05-20T04:24:20;102959.19;;;13.95;81.37
57412;BME280;43247;52.828;-8.980;2023-05-20T04:25:21;102960.76;;;13.96;81.43
57412;BME280;43247;52.828;-8.980;2023-05-20T04:26:21;102961.95;;;13.98;81.36
57412;BME280;43247;52.828;-8.980;2023-05-20T04:27:21;102964.64;;;14.03;81.29
57412;BME280;43247;52.828;-8.980;2023-05-20T04:28:22;102966.23;;;14.06;81.17
57412;BME280;43247;52.828;-8.980;2023-05-20T04:29:22;102968.24;;;14.10;81.07
57412;BME280;43247;52.828;-8.980;2023-05-20T04:30:22;102967.80;;;14.13;81.08
57412;BME280;43247;52.828;-8.980;2023-05-20T04:31:23;102966.66;;;14.16;81.02
57412;BME280;43247;52.828;-8.980;2023-05-20T04:32:23;102965.64;;;14.19;80.95
57412;BME280;43247;52.828;-8.980;2023-05-20T04:33:23;102962.61;;;14.21;80.95
57412;BME280;43247;52.828;-8.980;2023-05-20T04:34:23;102964.45;;;14.22;80.98
57412;BME280;43247;52.828;-8.980;2023-05-20T04:35:23;102962.04;;;14.22;81.02
57412;BME280;43247;52.828;-8.980;2023-05-20T04:36:23;102962.49;;;14.21;81.06
57412;BME280;43247;52.828;-8.980;2023-05-20T04:37:24;102960.25;;;14.21;81.04
57412;BME280;43247;52.828;-8.980;2023-05-20T04:38:24;102957.07;;;14.22;81.02
57412;BME280;43247;52.828;-8.980;2023-05-20T04:39:25;102959.75;;;14.22;80.95
57412;BME280;43247;52.828;-8.980;2023-05-20T04:40:25;102955.33;;;14.21;80.92
57412;BME280;43247;52.828;-8.980;2023-05-20T04:41:25;102954.85;;;14.21;80.91
57412;BME280;43247;52.828;-8.980;2023-05-20T04:42:25;102954.58;;;14.22;80.88
57412;BME280;43247;52.828;-8.980;2023-05-20T04:43:26;102953.11;;;14.24;80.85
57412;BME280;43247;52.828;-8.980;2023-05-20T04:44:25;102950.63;;;14.25;80.85
57412;BME280;43247;52.828;-8.980;2023-05-20T04:45:26;102948.02;;;14.26;80.89
57412;BME280;43247;52.828;-8.980;2023-05-20T04:46:26;102944.94;;;14.27;80.93
57412;BME280;43247;52.828;-8.980;2023-05-20T04:47:26;102943.43;;;14.27;80.93
57412;BME280;43247;52.828;-8.980;2023-05-20T04:48:26;102943.18;;;14.27;80.96
57412;BME280;43247;52.828;-8.980;2023-05-20T04:49:27;102941.03;;;14.27;80.93
57412;BME280;43247;52.828;-8.980;2023-05-20T04:50:27;102940.06;;;14.29;80.94
57412;BME280;43247;52.828;-8.980;2023-05-20T04:51:27;102938.80;;;14.29;80.95
57412;BME280;43247;52.828;-8.980;2023-05-20T04:52:27;102939.61;;;14.30;81.04
57412;BME280;43247;52.828;-8.980;2023-05-20T04:53:27;102939.87;;;14.29;81.15
57412;BME280;43247;52.828;-8.980;2023-05-20T04:54:28;102939.90;;;14.29;81.35
57412;BME280;43247;52.828;-8.980;2023-05-20T04:55:28;102941.48;;;14.29;81.26
57412;BME280;43247;52.828;-8.980;2023-05-20T04:56:28;102942.78;;;14.29;81.23
57412;BME280;43247;52.828;-8.980;2023-05-20T04:57:29;102942.90;;;14.29;81.20
57412;BME280;43247;52.828;-8.980;2023-05-20T04:58:29;102943.15;;;14.28;81.17
57412;BME280;43247;52.828;-8.980;2023-05-20T04:59:29;102945.06;;;14.29;81.24
57412;BME280;43247;52.828;-8.980;2023-05-20T05:00:29;102944.99;;;14.28;81.22
57412;BME280;43247;52.828;-8.980;2023-05-20T05:01:30;102944.06;;;14.28;81.23
57412;BME280;43247;52.828;-8.980;2023-05-20T05:02:30;102943.61;;;14.28;81.26
57412;BME280;43247;52.828;-8.980;2023-05-20T05:03:31;102941.24;;;14.28;81.32
57412;BME280;43247;52.828;-8.980;2023-05-20T05:04:31;102940.75;;;14.28;81.33
57412;BME280;43247;52.828;-8.980;2023-05-20T05:05:32;102941.75;;;14.27;81.35
57412;BME280;43247;52.828;-8.980;2023-05-20T05:06:32;102941.61;;;14.28;81.40
57412;BME280;43247;52.828;-8.980;2023-05-20T05:07:32;102941.33;;;14.27;81.43
57412;BME280;43247;52.828;-8.980;2023-05-20T05:08:33;102939.63;;;14.27;81.48
57412;BME280;43247;52.828;-8.980;2023-05-20T05:09:33;102937.81;;;14.27;81.48
57412;BME280;43247;52.828;-8.980;2023-05-20T05:10:35;102936.67;;;14.27;81.53